Time;durP1;ratioP1;P1;durP2;ratioP2;P2;SDS_P1;SDS_P2;PMS_P1;PMS_P2;Temp;Humidity;BMP_temperature;BMP_pressure;BME280_temperature;BME280_humidity;BME280_pressure;Samples;Min_cycle;Max_cycle;Signal;HPM_P1;HPM_P2
2023/10/31 00:02:01;;;;;;;1.85;0.45;;;11.30;99.90;;;;;;5024331;28;20029;-81
2023/10/31 00:04:27;;;;;;;1.48;0.45;;;11.30;99.90;;;;;;5023358;28;20492;-81
2023/10/31 00:06:52;;;;;;;1.83;0.70;;;11.30;99.90;;;;;;5023492;28;20026;-82
2023/10/31 00:09:18;;;;;;;4.45;1.05;;;11.30;99.90;;;;;;5022710;28;20042;-82
2023/10/31 00:11:44;;;;;;;2.55;0.40;;;11.20;99.90;;;;;;5025032;28;20033;-82
2023/10/31 00:14:10;;;;;;;3.25;0.80;;;11.20;99.90;;;;;;5022063;28;20026;-83
2023/10/31 00:16:35;;;;;;;5.45;0.50;;;11.20;99.90;;;;;;5022850;28;20110;-83
2023/10/31 00:19:01;;;;;;;2.17;0.60;;;11.20;99.90;;;;;;5022624;28;20433;-82
2023/10/31 00:21:27;;;;;;;1.65;0.50;;;11.20;99.90;;;;;;5023107;28;20478;-82
2023/10/31 00:23:53;;;;;;;1.65;0.40;;;11.20;99.90;;;;;;5023449;28;20032;-82
2023/10/31 00:26:18;;;;;;;3.65;0.60;;;11.20;99.90;;;;;;5022623;28;20025;-82
2023/10/31 00:28:44;;;;;;;3.35;0.57;;;11.10;99.90;;;;;;5021614;28;20125;-83
2023/10/31 00:31:11;;;;;;;2.63;0.60;;;11.10;99.90;;;;;;5023374;28;20323;-82
2023/10/31 00:33:37;;;;;;;3.55;0.63;;;11.10;99.90;;;;;;5022819;28;20463;-81
2023/10/31 00:36:03;;;;;;;2.58;0.70;;;11.10;99.90;;;;;;5023635;28;20018;-82
2023/10/31 00:38:29;;;;;;;5.40;0.90;;;11.00;99.90;;;;;;5022449;28;20030;-82
2023/10/31 00:40:55;;;;;;;4.10;0.70;;;11.10;99.90;;;;;;5022769;28;20045;-82
2023/10/31 00:43:20;;;;;;;4.15;1.00;;;11.10;99.90;;;;;;5021972;28;20046;-82
2023/10/31 00:45:46;;;;;;;4.07;1.00;;;11.10;99.90;;;;;;5022400;28;20020;-82
2023/10/31 00:48:12;;;;;;;4.88;0.93;;;11.00;99.90;;;;;;5021612;28;20105;-82
2023/10/31 00:50:37;;;;;;;3.80;1.10;;;11.00;99.90;;;;;;5022795;28;20030;-82
2023/10/31 00:53:03;;;;;;;4.28;0.80;;;11.00;99.90;;;;;;5022154;28;20026;-82
2023/10/31 00:55:29;;;;;;;6.68;1.13;;;11.00;99.90;;;;;;5022626;28;20053;-82
2023/10/31 00:57:54;;;;;;;3.35;0.85;;;10.90;99.90;;;;;;5022510;28;20014;-82
2023/10/31 01:00:20;;;;;;;4.28;1.10;;;10.90;99.90;;;;;;5021718;28;20437;-82
2023/10/31 01:02:46;;;;;;;4.38;1.40;;;10.90;99.90;;;;;;5022664;28;20516;-82
2023/10/31 01:05:11;;;;;;;4.93;1.38;;;10.80;99.90;;;;;;5022034;28;20022;-82
2023/10/31 01:07:37;;;;;;;3.95;1.10;;;10.80;99.90;;;;;;5022618;28;20026;-82
2023/10/31 01:10:03;;;;;;;4.38;1.98;;;10.80;99.90;;;;;;5022220;28;20045;-82
2023/10/31 01:12:30;;;;;;;8.38;2.90;;;10.80;99.90;;;;;;5022319;28;20026;-82
2023/10/31 01:14:56;;;;;;;11.45;3.72;;;10.80;99.90;;;;;;5021636;28;20045;-82
2023/10/31 01:17:22;;;;;;;11.85;4.88;;;10.80;99.90;;;;;;5030172;28;20022;-82
2023/10/31 01:19:47;;;;;;;12.38;6.13;;;10.80;99.90;;;;;;5039040;28;20026;-82
2023/10/31 01:22:13;;;;;;;14.63;7.18;;;10.80;99.90;;;;;;5037899;28;20090;-82
2023/10/31 01:24:39;;;;;;;16.02;7.07;;;10.80;99.90;;;;;;5038422;28;20026;-82
2023/10/31 01:27:04;;;;;;;17.98;8.70;;;10.80;99.90;;;;;;5019958;28;20041;-81
2023/10/31 01:29:30;;;;;;;16.75;9.98;;;10.80;99.90;;;;;;5024257;28;20030;-81
2023/10/31 01:31:56;;;;;;;17.30;10.35;;;10.80;99.90;;;;;;5021370;28;20032;-81
2023/10/31 01:34:22;;;;;;;20.00;10.05;;;10.80;99.90;;;;;;5021602;28;20041;-81
2023/10/31 01:36:47;;;;;;;14.30;9.57;;;10.80;99.90;;;;;;5021781;28;20022;-81
2023/10/31 01:39:13;;;;;;;21.10;10.00;;;10.80;99.90;;;;;;5020691;28;20048;-82
2023/10/31 01:41:42;;;;;;;17.80;9.57;;;10.80;99.90;;;;;;5023123;28;20028;-81
2023/10/31 01:44:07;;;;;;;18.05;9.55;;;10.80;99.90;;;;;;5020364;28;20075;-81
2023/10/31 01:46:33;;;;;;;18.35;9.35;;;10.80;99.90;;;;;;5021577;28;20022;-81
2023/10/31 01:48:59;;;;;;;17.70;9.80;;;10.80;99.90;;;;;;5020998;28;20445;-81
2023/10/31 01:51:26;;;;;;;19.85;11.05;;;10.80;99.90;;;;;;5021297;28;20471;-81
2023/10/31 01:53:52;;;;;;;22.20;12.13;;;10.80;99.90;;;;;;5021793;28;20029;-81
2023/10/31 01:56:19;;;;;;;20.13;11.65;;;10.80;99.90;;;;;;5020947;28;20026;-81
2023/10/31 01:58:47;;;;;;;19.80;10.85;;;10.90;99.90;;;;;;5021350;28;20018;-81
2023/10/31 02:01:13;;;;;;;19.67;9.82;;;10.90;99.90;;;;;;5020458;28;20060;-82
2023/10/31 02:03:38;;;;;;;16.67;9.32;;;10.90;99.90;;;;;;5021211;28;20423;-82
2023/10/31 02:06:04;;;;;;;19.15;10.50;;;10.90;99.90;;;;;;5020624;28;20025;-82
2023/10/31 02:08:30;;;;;;;21.67;11.00;;;10.90;99.90;;;;;;5020611;28;20034;-82
2023/10/31 02:10:56;;;;;;;19.13;12.32;;;10.90;99.90;;;;;;5020961;28;20026;-82
2023/10/31 02:13:22;;;;;;;25.15;13.07;;;10.90;99.90;;;;;;5020075;28;20057;-81
2023/10/31 02:15:47;;;;;;;21.27;11.85;;;10.90;99.90;;;;;;5021534;28;20448;-81
2023/10/31 02:18:13;;;;;;;18.67;10.23;;;11.00;99.90;;;;;;5020270;28;20029;-82
2023/10/31 02:20:39;;;;;;;16.77;10.25;;;10.90;99.90;;;;;;5021040;28;20037;-81
2023/10/31 02:23:05;;;;;;;18.33;9.93;;;10.90;99.90;;;;;;5021848;28;20021;-81
2023/10/31 02:25:31;;;;;;;12.57;6.90;;;10.90;99.90;;;;;;5020917;28;20022;-81
2023/10/31 02:27:57;;;;;;;15.75;8.13;;;11.00;99.90;;;;;;5020835;28;20441;-82
2023/10/31 02:30:24;;;;;;;12.30;7.05;;;11.00;99.90;;;;;;5020489;28;20021;-82
2023/10/31 02:32:50;;;;;;;12.00;6.97;;;11.00;99.90;;;;;;5020752;28;20091;-82
2023/10/31 02:35:18;;;;;;;17.50;7.75;;;11.00;99.90;;;;;;5020327;28;20459;-82
2023/10/31 02:37:45;;;;;;;15.13;7.93;;;11.00;99.90;;;;;;5020583;28;20112;-82
2023/10/31 02:40:12;;;;;;;16.20;8.02;;;11.00;99.90;;;;;;5019950;28;20022;-82
2023/10/31 02:42:37;;;;;;;15.07;7.55;;;11.00;99.90;;;;;;5020487;28;20041;-82
2023/10/31 02:45:04;;;;;;;20.50;9.45;;;11.10;99.90;;;;;;5020281;28;20065;-82
2023/10/31 02:47:30;;;;;;;15.93;8.90;;;11.10;99.90;;;;;;5020462;28;20026;-82
2023/10/31 02:49:55;;;;;;;18.33;9.40;;;11.10;99.90;;;;;;5020949;28;20053;-82
2023/10/31 02:52:21;;;;;;;16.92;10.07;;;11.10;99.90;;;;;;5022560;28;20025;-82
2023/10/31 02:54:47;;;;;;;21.50;10.13;;;11.10;99.90;;;;;;5025565;28;20060;-82
2023/10/31 02:57:13;;;;;;;15.85;9.25;;;11.20;99.90;;;;;;5023728;28;20041;-81
2023/10/31 02:59:39;;;;;;;18.33;10.15;;;11.20;99.90;;;;;;5024475;28;20033;-82
2023/10/31 03:02:04;;;;;;;16.88;8.77;;;11.20;99.90;;;;;;5024544;28;20026;-82
2023/10/31 03:04:30;;;;;;;17.45;10.10;;;11.20;99.90;;;;;;5024379;28;20026;-82
2023/10/31 03:06:55;;;;;;;16.52;9.38;;;11.20;99.90;;;;;;5026245;28;20029;-82
2023/10/31 03:09:21;;;;;;;16.48;9.45;;;11.20;99.90;;;;;;5022947;28;20080;-82
2023/10/31 03:11:47;;;;;;;16.45;9.55;;;11.20;99.90;;;;;;5024510;28;20057;-83
2023/10/31 03:14:12;;;;;;;19.05;11.27;;;11.20;99.90;;;;;;5023496;28;20045;-83
2023/10/31 03:16:39;;;;;;;17.60;9.65;;;11.10;99.90;;;;;;5024269;28;20530;-83
2023/10/31 03:19:05;;;;;;;19.95;12.10;;;11.10;99.90;;;;;;5023846;28;20026;-82
2023/10/31 03:21:30;;;;;;;19.75;12.20;;;11.20;99.90;;;;;;5023542;28;20026;-82
2023/10/31 03:23:56;;;;;;;25.48;13.82;;;11.10;99.90;;;;;;5024041;28;20105;-82
2023/10/31 03:26:22;;;;;;;18.70;12.32;;;11.10;99.90;;;;;;5023832;28;20037;-82
2023/10/31 03:28:48;;;;;;;23.83;14.40;;;11.10;99.90;;;;;;5024299;28;20044;-82
2023/10/31 03:31:14;;;;;;;22.70;14.10;;;11.10;99.90;;;;;;5023603;28;20068;-82
2023/10/31 03:33:41;;;;;;;24.33;14.40;;;11.10;99.90;;;;;;5025333;28;20029;-82
2023/10/31 03:36:08;;;;;;;23.48;15.60;;;11.10;99.90;;;;;;5023444;28;20049;-82
2023/10/31 03:38:35;;;;;;;21.42;15.05;;;11.00;99.90;;;;;;5023355;28;20509;-82
2023/10/31 03:41:01;;;;;;;23.50;14.75;;;11.00;99.90;;;;;;5024181;28;20029;-82
2023/10/31 03:43:27;;;;;;;24.52;14.25;;;11.00;99.90;;;;;;5023313;28;20077;-82
2023/10/31 03:45:53;;;;;;;20.23;13.85;;;11.00;99.90;;;;;;5023944;28;20037;-81
2023/10/31 03:48:18;;;;;;;21.40;13.45;;;11.00;99.90;;;;;;5023175;28;20033;-82
2023/10/31 03:50:44;;;;;;;18.08;12.52;;;11.00;99.90;;;;;;5033564;28;20026;-82
2023/10/31 03:53:10;;;;;;;18.88;12.82;;;11.00;99.90;;;;;;5023855;28;20584;-82
2023/10/31 03:55:36;;;;;;;15.73;10.90;;;11.00;99.90;;;;;;5023501;28;20470;-82
2023/10/31 03:58:02;;;;;;;16.25;9.93;;;11.00;99.90;;;;;;5023924;28;20018;-82
2023/10/31 04:00:27;;;;;;;18.23;11.00;;;11.00;99.90;;;;;;5023086;28;20053;-82
2023/10/31 04:02:53;;;;;;;15.88;8.80;;;11.00;99.90;;;;;;5023586;28;20057;-82
2023/10/31 04:05:19;;;;;;;15.43;9.05;;;11.00;99.90;;;;;;5023064;28;20409;-82
2023/10/31 04:07:46;;;;;;;14.85;8.23;;;11.00;99.90;;;;;;5022787;28;20512;-82
2023/10/31 04:10:12;;;;;;;13.20;7.82;;;11.00;99.90;;;;;;5022785;28;20045;-82
2023/10/31 04:12:38;;;;;;;16.00;7.95;;;10.90;99.90;;;;;;5023170;28;20152;-82
2023/10/31 04:15:04;;;;;;;11.82;6.72;;;10.90;99.90;;;;;;5022718;28;20014;-82
2023/10/31 04:17:30;;;;;;;13.70;6.43;;;11.00;99.90;;;;;;5022854;28;20049;-82
2023/10/31 04:19:56;;;;;;;12.43;6.57;;;10.90;99.90;;;;;;5024658;28;20105;-82
2023/10/31 04:22:21;;;;;;;10.40;5.90;;;10.90;99.90;;;;;;5022353;28;20038;-82
2023/10/31 04:24:47;;;;;;;11.88;5.70;;;10.90;99.90;;;;;;5023052;28;20022;-82
2023/10/31 04:27:13;;;;;;;12.20;5.68;;;10.90;99.90;;;;;;5022631;28;20049;-81
2023/10/31 04:29:38;;;;;;;8.25;4.20;;;10.90;99.90;;;;;;5023026;28;20057;-82
2023/10/31 04:32:04;;;;;;;8.30;4.65;;;10.90;99.90;;;;;;5023091;28;20017;-82
2023/10/31 04:34:30;;;;;;;8.45;4.40;;;10.80;99.90;;;;;;5022616;28;20046;-81
2023/10/31 04:36:56;;;;;;;9.70;4.63;;;10.90;99.90;;;;;;5024371;28;20117;-82
2023/10/31 04:39:21;;;;;;;10.30;5.07;;;10.80;99.90;;;;;;5022383;28;20049;-82
2023/10/31 04:41:47;;;;;;;9.70;4.40;;;10.80;99.90;;;;;;5023097;28;20018;-80
2023/10/31 04:44:13;;;;;;;9.88;4.90;;;10.80;99.90;;;;;;5022503;28;20052;-82
2023/10/31 04:46:39;;;;;;;13.00;5.82;;;10.80;99.90;;;;;;5023294;28;20034;-82
2023/10/31 04:49:05;;;;;;;12.10;5.03;;;10.80;99.90;;;;;;5022477;28;20038;-82
2023/10/31 04:51:38;;;;;;;11.63;6.00;;;10.80;99.90;;;;;;5023515;28;20040;-81
2023/10/31 04:54:04;;;;;;;11.45;6.45;;;10.80;99.90;;;;;;5022923;28;20046;-81
2023/10/31 04:56:30;;;;;;;12.40;6.45;;;10.80;99.90;;;;;;5022129;28;20056;-81
2023/10/31 04:58:55;;;;;;;13.30;7.40;;;10.80;99.90;;;;;;5022341;28;20061;-81
2023/10/31 05:01:21;;;;;;;13.50;7.35;;;10.80;99.90;;;;;;5023247;28;20022;-81
2023/10/31 05:03:47;;;;;;;15.57;8.38;;;10.80;99.90;;;;;;5022214;28;20014;-81
2023/10/31 05:06:12;;;;;;;15.25;8.52;;;10.80;99.90;;;;;;5023126;28;20022;-81
2023/10/31 05:08:38;;;;;;;14.73;8.00;;;10.80;99.90;;;;;;5022142;28;20030;-81
2023/10/31 05:11:04;;;;;;;15.77;9.23;;;10.80;99.90;;;;;;5022367;28;20014;-81
2023/10/31 05:13:29;;;;;;;15.23;8.55;;;10.80;99.90;;;;;;5020979;28;20026;-82
2023/10/31 05:15:55;;;;;;;18.00;9.50;;;10.80;99.90;;;;;;5023348;28;20471;-81
2023/10/31 05:18:21;;;;;;;13.85;8.30;;;10.80;99.90;;;;;;5021369;28;20026;-82
2023/10/31 05:20:47;;;;;;;16.80;8.25;;;10.80;99.90;;;;;;5021654;28;20022;-82
2023/10/31 05:23:13;;;;;;;15.57;9.77;;;10.80;99.90;;;;;;5021574;28;20037;-82
2023/10/31 05:25:39;;;;;;;16.08;8.68;;;10.80;99.90;;;;;;5023268;28;20084;-82
2023/10/31 05:28:05;;;;;;;13.32;8.30;;;10.80;99.90;;;;;;5022226;28;20327;-81
2023/10/31 05:30:30;;;;;;;14.20;7.88;;;10.70;99.90;;;;;;5022293;28;20014;-82
2023/10/31 05:32:56;;;;;;;12.70;8.03;;;10.70;99.90;;;;;;5022569;28;20032;-82
2023/10/31 05:35:22;;;;;;;14.32;8.07;;;10.70;99.90;;;;;;5040118;28;20436;-81
2023/10/31 05:37:48;;;;;;;13.55;7.07;;;10.70;99.90;;;;;;5041269;28;20033;-81
2023/10/31 05:40:15;;;;;;;11.85;6.47;;;10.70;99.90;;;;;;5040704;28;20026;-81
2023/10/31 05:42:41;;;;;;;14.35;7.80;;;10.70;99.90;;;;;;5041210;28;20095;-81
2023/10/31 05:45:07;;;;;;;13.38;5.35;;;10.70;99.90;;;;;;5041120;28;20449;-81
2023/10/31 05:47:33;;;;;;;11.48;5.90;;;10.70;99.90;;;;;;5040668;28;20048;-81
2023/10/31 05:49:59;;;;;;;10.45;5.63;;;10.70;99.90;;;;;;5041309;28;20233;-81
2023/10/31 05:52:29;;;;;;;11.45;5.35;;;10.70;99.90;;;;;;5041899;28;20056;-81
2023/10/31 05:54:55;;;;;;;8.95;4.05;;;10.70;99.90;;;;;;5041254;28;20021;-81
2023/10/31 05:57:21;;;;;;;7.60;3.97;;;10.70;99.90;;;;;;5040864;28;20025;-81
2023/10/31 05:59:46;;;;;;;8.55;3.40;;;10.70;99.90;;;;;;5040818;28;20077;-81
2023/10/31 06:02:14;;;;;;;7.60;2.95;;;10.70;99.90;;;;;;5041297;28;20021;-81
2023/10/31 06:04:39;;;;;;;8.70;2.80;;;10.70;99.90;;;;;;5040358;28;20056;-80
2023/10/31 06:07:05;;;;;;;8.05;3.33;;;10.60;99.90;;;;;;5041263;28;20047;-81
2023/10/31 06:09:33;;;;;;;8.02;2.95;;;10.60;99.90;;;;;;5040486;28;20060;-80
2023/10/31 06:11:59;;;;;;;5.93;2.20;;;10.50;99.90;;;;;;5042496;28;20018;-79
2023/10/31 06:14:25;;;;;;;6.25;2.80;;;10.50;99.90;;;;;;5037787;28;20040;-80
2023/10/31 06:16:51;;;;;;;5.80;2.10;;;10.50;99.90;;;;;;5042441;28;20021;-79
2023/10/31 06:19:17;;;;;;;6.15;1.80;;;10.50;99.90;;;;;;5039771;28;20024;-79
2023/10/31 06:21:42;;;;;;;6.47;2.40;;;10.50;99.90;;;;;;5039879;28;20044;-79
2023/10/31 06:24:08;;;;;;;7.40;2.28;;;10.50;99.90;;;;;;5041033;28;20017;-79
2023/10/31 06:26:34;;;;;;;8.75;2.00;;;10.40;99.90;;;;;;5040023;28;20009;-79
2023/10/31 06:29:00;;;;;;;4.30;1.45;;;10.50;99.90;;;;;;5039078;28;20543;-79
2023/10/31 06:31:25;;;;;;;4.55;1.80;;;10.50;99.90;;;;;;5038394;28;20091;-79
2023/10/31 06:33:51;;;;;;;4.85;1.98;;;10.40;99.90;;;;;;5041060;28;20025;-79
2023/10/31 06:36:17;;;;;;;3.67;1.50;;;10.40;99.90;;;;;;5039847;28;20009;-79
2023/10/31 06:38:42;;;;;;;4.85;1.70;;;10.40;99.90;;;;;;5039734;28;20021;-79
2023/10/31 06:41:08;;;;;;;5.53;1.85;;;10.50;99.90;;;;;;5040208;28;20030;-79
2023/10/31 06:43:34;;;;;;;7.30;2.60;;;10.50;99.90;;;;;;5039674;28;20097;-80
2023/10/31 06:46:02;;;;;;;6.95;2.15;;;10.50;99.90;;;;;;5040353;28;20032;-80
2023/10/31 06:48:27;;;;;;;6.82;2.67;;;10.50;99.90;;;;;;5039167;28;20038;-80
2023/10/31 06:50:53;;;;;;;7.85;3.65;;;10.50;99.90;;;;;;5040319;28;20032;-80
2023/10/31 06:53:19;;;;;;;10.68;4.60;;;10.60;99.90;;;;;;5039933;28;20025;-79
2023/10/31 06:55:44;;;;;;;11.07;6.03;;;10.50;99.90;;;;;;5040145;28;20485;-80
2023/10/31 06:58:10;;;;;;;12.48;6.00;;;10.60;99.90;;;;;;5040306;28;20018;-78
2023/10/31 07:00:37;;;;;;;9.50;5.95;;;10.60;99.90;;;;;;5039770;28;20014;-79
2023/10/31 07:03:06;;;;;;;13.23;7.28;;;10.60;99.90;;;;;;5039532;28;20052;-80
2023/10/31 07:05:32;;;;;;;15.57;7.68;;;10.60;99.90;;;;;;5039719;28;20025;-79
2023/10/31 07:07:58;;;;;;;13.90;7.70;;;10.60;99.90;;;;;;5040323;28;20064;-79
2023/10/31 07:10:23;;;;;;;15.70;8.18;;;10.60;99.90;;;;;;5039480;28;20078;-80
2023/10/31 07:12:49;;;;;;;16.35;8.68;;;10.60;99.90;;;;;;5039595;28;20071;-79
2023/10/31 07:15:14;;;;;;;17.55;8.23;;;10.60;99.90;;;;;;5040287;28;20226;-79
2023/10/31 07:17:40;;;;;;;15.38;8.48;;;10.60;99.90;;;;;;5039117;28;20029;-80
2023/10/31 07:20:06;;;;;;;13.13;8.00;;;10.70;99.90;;;;;;5040151;28;20029;-80
2023/10/31 07:22:34;;;;;;;16.48;8.68;;;10.70;99.90;;;;;;5039670;28;20018;-80
2023/10/31 07:25:02;;;;;;;20.30;11.45;;;10.70;99.90;;;;;;5039893;28;20026;-80
2023/10/31 07:27:28;;;;;;;18.95;10.85;;;10.60;99.90;;;;;;5039064;28;20026;-79
2023/10/31 07:29:54;;;;;;;20.55;12.48;;;10.60;99.90;;;;;;5039502;28;20480;-79
2023/10/31 07:32:19;;;;;;;23.45;12.82;;;10.70;99.90;;;;;;5040290;28;20049;-79
2023/10/31 07:34:45;;;;;;;22.17;12.52;;;10.70;99.90;;;;;;5039404;28;20045;-79
2023/10/31 07:37:11;;;;;;;21.08;13.15;;;10.70;99.90;;;;;;5040992;28;20029;-79
2023/10/31 07:39:37;;;;;;;23.10;14.10;;;10.70;99.90;;;;;;5043342;28;20044;-79
2023/10/31 07:42:02;;;;;;;21.77;13.10;;;10.70;99.90;;;;;;5043707;28;20022;-79
2023/10/31 07:44:28;;;;;;;21.75;13.15;;;10.70;99.90;;;;;;5042801;28;20076;-79
2023/10/31 07:46:54;;;;;;;23.20;14.38;;;10.70;99.90;;;;;;5043226;28;20056;-79
2023/10/31 07:49:20;;;;;;;21.52;14.57;;;10.70;99.90;;;;;;5043741;28;20030;-79
2023/10/31 07:51:47;;;;;;;22.25;13.82;;;10.70;99.90;;;;;;5043079;28;20049;-79
2023/10/31 07:54:14;;;;;;;23.35;15.40;;;10.80;99.90;;;;;;5043689;28;20047;-79
2023/10/31 07:56:40;;;;;;;22.17;14.85;;;10.80;99.90;;;;;;5043116;28;20100;-80
2023/10/31 07:59:07;;;;;;;21.38;13.95;;;10.80;99.90;;;;;;5043218;28;20095;-79
2023/10/31 08:01:33;;;;;;;24.65;14.55;;;10.90;99.90;;;;;;5042225;28;20111;-79
2023/10/31 08:03:59;;;;;;;22.77;14.50;;;10.90;99.90;;;;;;5044722;28;20054;-80
2023/10/31 08:06:25;;;;;;;24.38;16.52;;;10.90;99.90;;;;;;5044784;28;20350;-79
2023/10/31 08:08:50;;;;;;;25.70;15.60;;;11.00;99.90;;;;;;5042976;28;20532;-79
2023/10/31 08:11:16;;;;;;;24.10;15.43;;;11.00;99.90;;;;;;5043439;28;20029;-80
2023/10/31 08:13:42;;;;;;;21.02;14.20;;;11.00;99.90;;;;;;5041989;28;20378;-80
2023/10/31 08:16:08;;;;;;;23.50;15.65;;;11.00;99.90;;;;;;5043118;28;20140;-80
2023/10/31 08:18:35;;;;;;;19.27;13.90;;;11.10;99.90;;;;;;5044257;28;20013;-79
2023/10/31 08:21:01;;;;;;;22.17;14.45;;;11.10;99.90;;;;;;5042839;28;20029;-79
2023/10/31 08:23:28;;;;;;;17.63;11.90;;;11.10;99.90;;;;;;5042445;28;20021;-79
2023/10/31 08:25:54;;;;;;;21.38;13.80;;;11.20;99.90;;;;;;5042411;28;20454;-79
2023/10/31 08:28:20;;;;;;;18.65;11.75;;;11.30;99.90;;;;;;5043846;28;20065;-79
2023/10/31 08:30:46;;;;;;;18.08;12.02;;;11.30;99.90;;;;;;5042251;28;20029;-79
2023/10/31 08:33:12;;;;;;;15.95;9.60;;;11.40;99.90;;;;;;5042677;28;20028;-79
2023/10/31 08:35:38;;;;;;;14.93;9.75;;;11.50;99.90;;;;;;5043186;28;20081;-79
2023/10/31 08:38:03;;;;;;;12.73;8.27;;;11.60;99.90;;;;;;5042556;28;20018;-79
2023/10/31 08:40:29;;;;;;;15.63;9.25;;;11.70;99.90;;;;;;5042477;28;20021;-79
2023/10/31 08:42:55;;;;;;;13.23;8.90;;;11.80;99.90;;;;;;5041700;28;20531;-79
2023/10/31 08:45:21;;;;;;;16.00;8.10;;;11.90;99.90;;;;;;5042651;28;20042;-79
2023/10/31 08:47:47;;;;;;;14.85;8.18;;;11.90;99.90;;;;;;5041692;28;20025;-79
2023/10/31 08:50:13;;;;;;;12.77;7.68;;;12.00;99.90;;;;;;5041690;28;20104;-79
2023/10/31 08:52:39;;;;;;;11.43;6.20;;;12.10;99.90;;;;;;5042039;28;20164;-79
2023/10/31 08:55:06;;;;;;;13.82;6.75;;;12.20;99.90;;;;;;5043806;28;20028;-79
2023/10/31 08:57:33;;;;;;;12.15;6.93;;;12.30;99.90;;;;;;5042888;28;20458;-79
2023/10/31 08:59:59;;;;;;;12.07;6.15;;;12.30;99.90;;;;;;5042020;28;20017;-79
2023/10/31 09:02:24;;;;;;;14.43;6.72;;;12.30;99.90;;;;;;5042408;28;20025;-79
2023/10/31 09:04:50;;;;;;;12.05;5.50;;;12.30;99.90;;;;;;5041767;28;20022;-79
2023/10/31 09:07:16;;;;;;;11.80;5.63;;;12.30;99.90;;;;;;5042012;28;20027;-80
2023/10/31 09:09:42;;;;;;;12.32;6.28;;;12.30;99.90;;;;;;5041497;28;20037;-79
2023/10/31 09:12:08;;;;;;;10.10;5.32;;;12.30;99.90;;;;;;5041578;28;20040;-79
2023/10/31 09:14:35;;;;;;;11.73;6.72;;;12.30;99.90;;;;;;5040804;28;20046;-79
2023/10/31 09:17:02;;;;;;;10.70;5.32;;;12.40;99.90;;;;;;5041611;28;20564;-79
2023/10/31 09:19:28;;;;;;;13.55;6.95;;;12.50;99.90;;;;;;5042100;28;20026;-79
2023/10/31 09:21:55;;;;;;;13.10;5.90;;;12.60;99.90;;;;;;5041211;28;20089;-79
2023/10/31 09:24:21;;;;;;;13.70;5.10;;;12.70;99.90;;;;;;5041727;28;20022;-79
2023/10/31 09:26:46;;;;;;;10.75;4.38;;;12.90;99.90;;;;;;5040708;28;20022;-79
2023/10/31 09:29:13;;;;;;;12.98;4.85;;;13.20;99.90;;;;;;5041168;28;20037;-79
2023/10/31 09:31:38;;;;;;;11.48;4.68;;;13.40;99.90;;;;;;5041172;28;20036;-79
2023/10/31 09:34:04;;;;;;;11.55;5.57;;;13.70;99.90;;;;;;5040819;28;20021;-79
2023/10/31 09:36:36;;;;;;;9.85;5.93;;;13.70;99.90;;;;;;5041532;28;20029;-79
2023/10/31 09:39:03;;;;;;;10.52;5.15;;;13.70;99.90;;;;;;5040816;28;20150;-79
2023/10/31 09:41:30;;;;;;;10.85;5.47;;;13.70;99.90;;;;;;5041128;28;20022;-79
2023/10/31 09:43:55;;;;;;;10.05;5.68;;;13.80;99.90;;;;;;5040640;28;20072;-79
2023/10/31 09:46:21;;;;;;;10.88;6.50;;;13.70;99.90;;;;;;5041365;28;20029;-79
2023/10/31 09:48:49;;;;;;;11.70;5.82;;;13.80;99.90;;;;;;5040442;28;20039;-79
2023/10/31 09:51:14;;;;;;;8.68;4.85;;;13.90;99.90;;;;;;5040930;28;20033;-79
2023/10/31 09:53:43;;;;;;;11.63;6.93;;;14.10;99.90;;;;;;5041580;28;20025;-79
2023/10/31 09:56:09;;;;;;;13.68;6.82;;;14.10;99.90;;;;;;5040240;28;20048;-78
2023/10/31 09:58:36;;;;;;;9.63;6.15;;;14.10;99.90;;;;;;5042776;28;20041;-78
2023/10/31 10:01:02;;;;;;;15.25;7.72;;;14.10;99.90;;;;;;5040114;28;20509;-78
2023/10/31 10:03:29;;;;;;;16.95;8.15;;;14.10;99.90;;;;;;5057840;28;20076;-78
2023/10/31 10:05:55;;;;;;;14.48;7.88;;;14.10;99.90;;;;;;5040531;28;20029;-77
2023/10/31 10:08:21;;;;;;;10.70;7.20;;;14.10;99.90;;;;;;5040771;28;20021;-78
2023/10/31 10:10:49;;;;;;;11.50;6.68;;;14.20;99.90;;;;;;5040723;28;20026;-78
2023/10/31 10:13:17;;;;;;;10.30;6.65;;;14.40;99.90;;;;;;5040011;28;20033;-79
2023/10/31 10:15:54;;;;;;;12.85;6.55;;;14.70;99.90;;;;;;5040722;28;20141;-78
2023/10/31 10:18:31;;;;;;;10.15;5.82;;;14.80;99.90;;;;;;5040112;28;20025;-78
2023/10/31 10:21:02;;;;;;;11.27;5.70;;;15.00;99.90;;;;;;5040793;28;20029;-78
2023/10/31 10:23:29;;;;;;;7.97;4.78;;;15.10;99.90;;;;;;5040647;28;20028;-78
2023/10/31 10:25:57;;;;;;;8.60;4.47;;;15.30;99.90;;;;;;5039529;28;20021;-78
2023/10/31 10:28:24;;;;;;;7.90;4.38;;;15.40;99.90;;;;;;5042359;28;20022;-78
2023/10/31 10:30:50;;;;;;;7.95;4.13;;;15.70;99.90;;;;;;5041530;28;20033;-78
2023/10/31 10:33:17;;;;;;;10.45;3.42;;;15.80;99.70;;;;;;5040770;28;20085;-78
2023/10/31 10:35:43;;;;;;;9.73;3.53;;;16.20;99.60;;;;;;5039890;28;20025;-79
2023/10/31 10:38:14;;;;;;;8.98;2.63;;;16.70;99.90;;;;;;5040660;28;20025;-79
2023/10/31 10:40:44;;;;;;;11.13;2.90;;;17.30;99.90;;;;;;5041739;28;20026;-79
2023/10/31 10:43:23;;;;;;;6.57;2.30;;;18.10;99.40;;;;;;5039856;28;20049;-79
2023/10/31 10:45:57;;;;;;;8.23;2.72;;;18.70;97.80;;;;;;5040476;28;20436;-79
2023/10/31 10:48:27;;;;;;;6.45;2.58;;;19.00;94.90;;;;;;5039729;28;20038;-79
2023/10/31 10:51:27;;;;;;;7.00;2.28;;;18.90;92.60;;;;;;5041821;28;20018;-78
2023/10/31 10:53:58;;;;;;;6.68;2.63;;;18.80;91.80;;;;;;5040221;28;20040;-79
2023/10/31 10:56:34;;;;;;;7.50;2.95;;;18.60;90.50;;;;;;5039923;28;20013;-79
2023/10/31 10:59:18;;;;;;;7.60;3.22;;;18.40;89.10;;;;;;5040398;28;20536;-78
2023/10/31 11:01:46;;;;;;;6.38;2.75;;;18.30;89.90;;;;;;5041381;28;20036;-78
2023/10/31 11:04:13;;;;;;;5.05;2.58;;;18.30;90.00;;;;;;5040037;28;20033;-79
2023/10/31 11:06:40;;;;;;;7.57;3.08;;;18.20;89.80;;;;;;5040517;28;20025;-79
2023/10/31 11:09:06;;;;;;;8.60;3.45;;;18.10;88.60;;;;;;5039112;28;20060;-79
2023/10/31 11:11:33;;;;;;;8.60;3.95;;;17.90;87.40;;;;;;5040490;28;20124;-78
2023/10/31 11:14:01;;;;;;;11.60;5.40;;;17.70;88.00;;;;;;5042801;28;20085;-79
2023/10/31 11:16:35;;;;;;;7.13;4.28;;;17.50;88.70;;;;;;5044043;28;20021;-78
2023/10/31 11:19:00;;;;;;;8.98;4.70;;;17.60;89.30;;;;;;5043809;28;20393;-79
2023/10/31 11:21:31;;;;;;;16.80;5.13;;;17.80;89.80;;;;;;5043952;28;20021;-78
2023/10/31 11:23:59;;;;;;;10.85;5.10;;;17.90;89.40;;;;;;5045478;28;20021;-78
2023/10/31 11:26:29;;;;;;;12.50;6.10;;;17.90;89.10;;;;;;5043465;28;20029;-79
2023/10/31 11:29:10;;;;;;;11.32;7.95;;;17.80;88.00;;;;;;5045319;28;20061;-79
2023/10/31 11:31:37;;;;;;;11.10;8.07;;;17.50;87.00;;;;;;5043346;28;20037;-79
2023/10/31 11:34:04;;;;;;;12.60;8.40;;;17.40;88.20;;;;;;5043575;28;20029;-78
2023/10/31 11:36:33;;;;;;;11.13;8.40;;;17.60;89.60;;;;;;5043812;28;20048;-78
2023/10/31 11:39:25;;;;;;;11.80;7.00;;;17.90;90.30;;;;;;5044572;28;20056;-78
2023/10/31 11:41:54;;;;;;;12.15;6.80;;;18.40;90.00;;;;;;5043523;28;20021;-79
2023/10/31 11:44:25;;;;;;;9.43;6.47;;;19.00;90.00;;;;;;5043280;28;20037;-79
2023/10/31 11:46:52;;;;;;;11.63;6.97;;;19.60;89.90;;;;;;5043677;28;20093;-78
2023/10/31 11:49:38;;;;;;;13.40;7.70;;;20.00;88.10;;;;;;5044103;28;20030;-80
2023/10/31 11:52:17;;;;;;;11.77;6.65;;;20.40;87.00;;;;;;5042368;28;20064;-78
2023/10/31 11:54:44;;;;;;;11.15;7.80;;;20.90;84.80;;;;;;5043774;28;20075;-80
2023/10/31 11:57:10;;;;;;;11.00;7.65;;;21.20;82.10;;;;;;5043109;28;20175;-80
2023/10/31 11:59:37;;;;;;;10.18;6.28;;;21.60;80.40;;;;;;5043381;28;20057;-78
2023/10/31 12:02:15;;;;;;;10.50;6.88;;;21.90;79.40;;;;;;5044942;28;20084;-78
2023/10/31 12:04:41;;;;;;;12.10;7.65;;;22.20;77.50;;;;;;5042605;28;20024;-78
2023/10/31 12:07:07;;;;;;;12.00;7.85;;;22.40;76.40;;;;;;5042972;28;20033;-78
2023/10/31 12:09:33;;;;;;;13.00;7.47;;;22.30;73.50;;;;;;5042683;28;20092;-78
2023/10/31 12:11:59;;;;;;;13.10;7.70;;;21.90;71.20;;;;;;5043230;28;20014;-81
2023/10/31 12:14:24;;;;;;;12.07;7.93;;;21.50;70.30;;;;;;5043575;28;20030;-78
2023/10/31 12:16:50;;;;;;;12.93;9.02;;;21.20;71.10;;;;;;5042922;28;20013;-79
2023/10/31 12:19:15;;;;;;;14.80;9.27;;;20.90;70.40;;;;;;5043130;28;20033;-78
2023/10/31 12:21:43;;;;;;;15.75;10.35;;;20.70;71.70;;;;;;5042045;28;20108;-80
2023/10/31 12:24:13;;;;;;;14.55;9.90;;;20.50;70.90;;;;;;5042831;28;20109;-78
2023/10/31 12:26:40;;;;;;;16.20;10.05;;;20.10;70.60;;;;;;5042227;28;20033;-80
2023/10/31 12:29:12;;;;;;;16.33;10.73;;;19.60;71.10;;;;;;5042832;28;20029;-80
2023/10/31 12:31:47;;;;;;;12.67;9.97;;;19.10;71.70;;;;;;5043739;28;20031;-80
2023/10/31 12:34:14;;;;;;;16.70;10.43;;;18.70;72.70;;;;;;5042401;28;20022;-80
2023/10/31 12:36:41;;;;;;;15.52;10.35;;;18.30;73.60;;;;;;5042606;28;20051;-80